createdAt,value
2022-09-06T00:00:43.253Z,1.5
2022-09-06T00:01:43.039Z,1.7
2022-09-06T00:02:42.598Z,2.0
2022-09-06T00:03:42.573Z,1.5
2022-09-06T00:04:41.969Z,1.2
2022-09-06T00:05:43.913Z,1.3
2022-09-06T00:06:42.077Z,1.3
2022-09-06T00:07:42.167Z,1.2
2022-09-06T00:08:43.697Z,1.2
2022-09-06T00:09:42.010Z,1.3
2022-09-06T00:10:43.192Z,1.6
2022-09-06T00:11:42.046Z,1.2
2022-09-06T00:12:42.209Z,1.1
2022-09-06T00:13:42.148Z,0.9
2022-09-06T00:14:42.014Z,1.2
2022-09-06T00:15:42.137Z,1.1
2022-09-06T00:16:42.037Z,2.0
2022-09-06T00:17:42.067Z,1.3
2022-09-06T00:18:42.447Z,2.0
2022-09-06T00:19:42.056Z,2.0
2022-09-06T00:20:42.210Z,2.4
2022-09-06T00:21:42.060Z,1.7
2022-09-06T00:22:42.420Z,1.2
2022-09-06T00:23:42.044Z,1.6
2022-09-06T00:24:42.016Z,1.2
2022-09-06T00:26:41.981Z,1.9
2022-09-06T00:27:42.018Z,1.1
2022-09-06T00:28:42.262Z,1.3
2022-09-06T00:29:42.464Z,2.1
2022-09-06T00:30:42.100Z,1.6
2022-09-06T00:31:41.999Z,1.7
2022-09-06T00:32:42.060Z,1.5
2022-09-06T00:33:42.262Z,1.8
2022-09-06T00:34:42.334Z,2.3
2022-09-06T00:35:42.062Z,2.6
2022-09-06T00:36:41.950Z,3.1
2022-09-06T00:37:41.961Z,5.3
2022-09-06T00:38:43.451Z,2.7
2022-09-06T00:39:42.179Z,1.5
2022-09-06T00:40:42.702Z,2.2
2022-09-06T00:41:42.105Z,2.0
2022-09-06T00:42:42.375Z,1.4
2022-09-06T00:43:43.088Z,3.1
2022-09-06T00:44:42.370Z,2.6
2022-09-06T00:45:42.013Z,3.1
2022-09-06T00:46:47.560Z,3.0
2022-09-06T00:47:43.876Z,1.5
2022-09-06T00:48:43.443Z,2.0
2022-09-06T00:49:47.325Z,1.7
2022-09-06T00:50:42.193Z,1.3
2022-09-06T00:51:42.352Z,1.3
2022-09-06T00:52:43.753Z,1.6
2022-09-06T00:53:42.181Z,1.4
2022-09-06T00:54:43.316Z,1.2
2022-09-06T00:55:43.248Z,1.2
2022-09-06T00:56:44.165Z,1.9
2022-09-06T00:57:42.709Z,0.9
2022-09-06T00:58:42.495Z,1.0
2022-09-06T00:59:43.232Z,1.1
2022-09-06T01:00:42.003Z,1.6
2022-09-06T01:01:42.394Z,1.2
2022-09-06T01:02:42.233Z,1.3
2022-09-06T01:03:45.346Z,1.1
2022-09-06T01:04:44.450Z,0.9
2022-09-06T01:05:55.283Z,1.0
2022-09-06T01:06:58.707Z,1.5
2022-09-06T01:07:49.488Z,1.7
2022-09-06T01:08:50.421Z,1.7
2022-09-06T01:09:56.843Z,1.5
2022-09-06T01:10:50.682Z,0.9
2022-09-06T01:11:49.604Z,0.9
2022-09-06T01:12:55.790Z,1.4
2022-09-06T01:13:57.473Z,1.0
2022-09-06T01:15:52.164Z,1.3
2022-09-06T01:16:54.729Z,1.4
2022-09-06T01:17:49.185Z,1.2
2022-09-06T01:19:00.035Z,1.4
2022-09-06T01:20:00.015Z,1.2
2022-09-06T01:20:56.194Z,1.8
2022-09-06T01:21:48.156Z,1.3
2022-09-06T01:23:00.029Z,2.6
2022-09-06T01:23:54.614Z,3.1
2022-09-06T01:24:51.795Z,2.9
2022-09-06T01:26:51.736Z,1.4
2022-09-06T01:28:00.105Z,2.2
2022-09-06T01:28:45.630Z,2.5
2022-09-06T01:30:49.691Z,2.2
2022-09-06T01:31:52.144Z,1.8
2022-09-06T01:32:57.324Z,1.8
2022-09-06T01:33:57.311Z,1.1
2022-09-06T01:34:48.352Z,1.4
2022-09-06T01:37:43.384Z,1.2
2022-09-06T01:38:42.180Z,1.5
2022-09-06T01:39:42.774Z,1.4
2022-09-06T01:40:41.956Z,1.4
2022-09-06T01:41:41.993Z,1.6
2022-09-06T01:42:44.776Z,1.0
2022-09-06T01:43:47.686Z,1.0
2022-09-06T01:44:46.229Z,1.3
2022-09-06T01:45:51.606Z,1.2
2022-09-06T01:46:49.979Z,1.3
2022-09-06T01:47:49.569Z,1.5
2022-09-06T01:49:00.297Z,1.8
2022-09-06T01:49:57.244Z,1.3
2022-09-06T01:50:59.014Z,1.8
2022-09-06T01:51:57.775Z,0.9
2022-09-06T01:52:57.157Z,1.1
2022-09-06T01:53:58.350Z,1.2
2022-09-06T01:54:54.466Z,1.1
2022-09-06T01:55:55.753Z,1.9
2022-09-06T01:56:54.393Z,1.8
2022-09-06T01:58:00.115Z,1.7
2022-09-06T01:59:00.053Z,1.7
2022-09-06T01:59:59.459Z,2.5
2022-09-06T02:00:53.020Z,1.3
2022-09-06T02:01:55.825Z,1.3
2022-09-06T02:02:50.021Z,1.2
2022-09-06T02:03:54.864Z,1.1
2022-09-06T02:04:48.000Z,1.0
2022-09-06T02:05:54.384Z,1.4
2022-09-06T02:06:46.746Z,1.4
2022-09-06T02:07:44.103Z,1.5
2022-09-06T02:08:48.790Z,1.6
2022-09-06T02:09:45.937Z,2.0
2022-09-06T02:10:52.001Z,1.5
2022-09-06T02:11:46.836Z,1.6
2022-09-06T02:12:45.893Z,1.8
2022-09-06T02:13:54.637Z,1.6
2022-09-06T02:14:52.990Z,1.7
2022-09-06T02:15:47.989Z,1.4
2022-09-06T02:16:45.509Z,1.7
2022-09-06T02:17:47.950Z,1.8
2022-09-06T02:18:45.190Z,2.0
2022-09-06T02:19:49.460Z,2.7
2022-09-06T02:20:50.155Z,2.3
2022-09-06T02:21:46.378Z,1.4
2022-09-06T02:22:45.539Z,1.6
2022-09-06T02:23:43.809Z,1.4
2022-09-06T02:24:45.355Z,1.3
2022-09-06T02:25:48.784Z,2.0
2022-09-06T02:26:44.602Z,1.4
2022-09-06T02:27:41.938Z,1.9
2022-09-06T02:30:46.709Z,1.6
2022-09-06T02:31:44.592Z,1.6
2022-09-06T02:32:50.385Z,1.6
2022-09-06T02:33:44.940Z,1.5
2022-09-06T02:34:43.344Z,1.7
2022-09-06T02:35:47.734Z,1.4
2022-09-06T02:36:42.032Z,1.5
2022-09-06T02:37:42.973Z,1.2
2022-09-06T02:38:44.832Z,1.4
2022-09-06T02:40:43.376Z,1.1
2022-09-06T02:41:44.192Z,1.6
2022-09-06T02:42:42.067Z,1.6
2022-09-06T02:43:43.814Z,1.3
2022-09-06T02:44:42.143Z,1.1
2022-09-06T02:45:41.966Z,1.3
2022-09-06T02:46:42.102Z,1.3
2022-09-06T02:47:41.901Z,1.5
2022-09-06T02:48:42.248Z,1.3
2022-09-06T02:50:41.964Z,1.4
2022-09-06T02:51:42.130Z,1.5
2022-09-06T02:52:42.003Z,1.7
2022-09-06T02:53:41.897Z,1.4
2022-09-06T02:54:41.868Z,1.1
2022-09-06T02:55:42.798Z,2.0
2022-09-06T02:56:42.161Z,1.5
2022-09-06T02:57:41.893Z,1.8
2022-09-06T02:58:41.937Z,1.4
2022-09-06T03:00:42.179Z,1.3
2022-09-06T03:01:42.078Z,1.2
2022-09-06T03:02:41.910Z,1.2
2022-09-06T03:04:41.889Z,1.4
2022-09-06T03:05:47.251Z,1.8
2022-09-06T03:06:41.902Z,2.0
2022-09-06T03:07:41.908Z,2.0
2022-09-06T03:08:41.888Z,2.2
2022-09-06T03:09:41.883Z,1.9
2022-09-06T03:10:42.218Z,1.5
2022-09-06T03:11:41.867Z,1.6
2022-09-06T03:12:43.672Z,1.5
2022-09-06T03:13:42.292Z,1.3
2022-09-06T03:14:41.851Z,1.3
2022-09-06T03:15:41.857Z,1.2
2022-09-06T03:16:41.902Z,1.4
2022-09-06T03:17:42.467Z,1.9
2022-09-06T03:18:42.026Z,1.7
2022-09-06T03:19:41.843Z,1.1
2022-09-06T03:20:41.846Z,1.5
2022-09-06T03:21:41.852Z,1.6
2022-09-06T03:22:42.373Z,1.6
2022-09-06T03:23:41.893Z,1.1
2022-09-06T03:24:41.841Z,1.2
2022-09-06T03:25:43.304Z,1.4
2022-09-06T03:26:41.881Z,1.5
2022-09-06T03:28:43.271Z,1.1
2022-09-06T03:29:41.925Z,1.8
2022-09-06T03:30:45.102Z,1.3
2022-09-06T03:31:41.874Z,1.7
2022-09-06T03:32:41.839Z,1.8
2022-09-06T03:33:41.948Z,1.4
2022-09-06T03:34:41.929Z,1.9
2022-09-06T03:35:47.785Z,1.9
2022-09-06T03:37:41.818Z,2.5
2022-09-06T03:38:41.841Z,2.2
2022-09-06T03:39:42.002Z,1.8
2022-09-06T03:40:41.901Z,1.8
2022-09-06T03:41:41.951Z,3.0
2022-09-06T03:42:41.931Z,1.8
2022-09-06T03:43:41.876Z,1.8
2022-09-06T03:44:42.028Z,2.0
2022-09-06T03:45:46.117Z,1.7
2022-09-06T03:46:41.863Z,1.6
2022-09-06T03:47:41.902Z,1.6
2022-09-06T03:48:42.242Z,1.9
2022-09-06T03:49:41.817Z,2.2
2022-09-06T03:50:46.570Z,2.8
2022-09-06T03:51:41.904Z,2.5
2022-09-06T03:52:42.566Z,1.9
2022-09-06T03:53:41.855Z,2.2
2022-09-06T03:54:41.893Z,2.9
2022-09-06T03:55:44.943Z,2.2
2022-09-06T03:56:41.797Z,2.7
2022-09-06T03:57:41.853Z,1.1
2022-09-06T03:58:41.943Z,2.1
2022-09-06T03:59:41.824Z,1.8
2022-09-06T04:00:41.927Z,2.2
2022-09-06T04:01:41.923Z,1.5
2022-09-06T04:02:41.948Z,1.7
2022-09-06T04:03:47.037Z,1.6
2022-09-06T04:04:41.834Z,1.6
2022-09-06T04:05:45.460Z,1.6
2022-09-06T04:06:41.851Z,2.5
2022-09-06T04:09:41.947Z,2.4
2022-09-06T04:11:45.041Z,2.3
2022-09-06T04:12:41.931Z,3.1
2022-09-06T04:14:41.811Z,2.5
2022-09-06T04:16:41.935Z,2.4
2022-09-06T04:17:46.082Z,2.0
2022-09-06T04:18:41.956Z,2.3
2022-09-06T04:19:42.131Z,2.1
2022-09-06T04:20:42.019Z,1.8
2022-09-06T04:21:41.884Z,1.4
2022-09-06T04:22:41.826Z,1.9
2022-09-06T04:23:41.966Z,1.8
2022-09-06T04:24:41.876Z,1.7
2022-09-06T04:25:41.872Z,1.8
2022-09-06T04:26:41.805Z,1.8
2022-09-06T04:27:41.805Z,1.6
2022-09-06T04:28:41.897Z,1.6
2022-09-06T04:29:41.879Z,1.6
2022-09-06T04:31:41.977Z,1.3
2022-09-06T04:32:41.936Z,1.5
2022-09-06T04:34:42.436Z,1.6
2022-09-06T04:35:41.807Z,1.3
2022-09-06T04:39:41.814Z,2.2
2022-09-06T04:41:42.768Z,2.1
2022-09-06T04:43:42.473Z,1.6
2022-09-06T04:45:42.773Z,2.7
2022-09-06T04:47:42.086Z,1.8
2022-09-06T04:48:41.791Z,1.4
2022-09-06T04:49:42.319Z,2.2
2022-09-06T04:50:41.862Z,2.0
2022-09-06T04:51:41.788Z,2.0
2022-09-06T04:52:41.767Z,2.3
2022-09-06T04:53:42.061Z,1.5
2022-09-06T04:54:41.892Z,2.4
2022-09-06T04:55:41.891Z,2.4
2022-09-06T04:56:41.855Z,1.5
2022-09-06T04:57:45.810Z,1.7
2022-09-06T05:00:44.785Z,2.1
2022-09-06T05:04:41.905Z,2.4
2022-09-06T05:05:41.911Z,1.8
2022-09-06T05:06:43.169Z,1.9
2022-09-06T05:07:41.815Z,2.2
2022-09-06T05:08:42.341Z,1.7
2022-09-06T05:09:41.772Z,2.0
2022-09-06T05:10:41.822Z,2.0
2022-09-06T05:11:41.843Z,2.0
2022-09-06T05:12:44.301Z,1.6
2022-09-06T05:14:41.900Z,1.3
2022-09-06T05:15:41.832Z,1.2
2022-09-06T05:16:42.079Z,1.3
2022-09-06T05:17:41.769Z,1.4
2022-09-06T05:22:42.041Z,1.5
2022-09-06T05:23:41.752Z,1.5
2022-09-06T05:24:41.818Z,1.4
2022-09-06T05:25:41.751Z,1.2
2022-09-06T05:26:41.805Z,1.8
2022-09-06T05:27:41.751Z,2.4
2022-09-06T05:28:41.881Z,1.7
2022-09-06T05:29:41.756Z,2.1
2022-09-06T05:30:41.849Z,1.6
2022-09-06T05:31:41.810Z,1.6
2022-09-06T05:32:43.078Z,1.5
2022-09-06T05:33:41.768Z,1.5
2022-09-06T05:34:41.801Z,1.2
2022-09-06T05:35:41.841Z,1.5
2022-09-06T05:36:42.237Z,2.1
2022-09-06T05:37:42.794Z,2.1
2022-09-06T05:38:41.798Z,2.0
2022-09-06T05:39:41.827Z,1.8
2022-09-06T05:40:43.110Z,2.1
2022-09-06T05:41:41.762Z,2.1
2022-09-06T05:42:41.735Z,2.1
2022-09-06T05:43:41.727Z,1.9
2022-09-06T05:46:45.491Z,2.1
2022-09-06T05:47:41.748Z,1.9
2022-09-06T05:48:41.848Z,2.8
2022-09-06T05:49:41.819Z,2.0
2022-09-06T05:50:41.735Z,1.7
2022-09-06T05:51:42.355Z,1.6
2022-09-06T05:52:41.889Z,1.1
2022-09-06T05:53:45.268Z,1.3
2022-09-06T05:55:43.162Z,1.3
2022-09-06T05:57:41.843Z,1.4
2022-09-06T05:59:41.766Z,1.6
2022-09-06T06:01:51.130Z,1.4
2022-09-06T06:02:42.142Z,1.7
2022-09-06T06:03:44.642Z,1.5
2022-09-06T06:05:41.765Z,1.9
2022-09-06T06:06:41.764Z,2.2
2022-09-06T06:07:41.783Z,1.8
2022-09-06T06:08:41.794Z,2.0
2022-09-06T06:09:42.239Z,1.7
2022-09-06T06:10:41.762Z,1.9
2022-09-06T06:11:42.415Z,1.6
2022-09-06T06:13:43.312Z,1.3
2022-09-06T06:14:41.735Z,1.3
2022-09-06T06:15:41.728Z,1.6
2022-09-06T06:16:41.789Z,1.8
2022-09-06T06:17:41.717Z,1.6
2022-09-06T06:18:42.161Z,1.6
2022-09-06T06:19:41.711Z,2.0
2022-09-06T06:20:41.749Z,2.7
2022-09-06T06:21:41.737Z,2.6
2022-09-06T06:22:41.706Z,2.1
2022-09-06T06:23:43.396Z,1.9
2022-09-06T06:24:41.771Z,2.1
2022-09-06T06:25:41.769Z,2.5
2022-09-06T06:26:41.757Z,1.7
2022-09-06T06:27:41.705Z,1.0
2022-09-06T06:28:42.058Z,1.3
2022-09-06T06:29:41.754Z,1.6
2022-09-06T06:30:41.745Z,1.7
2022-09-06T06:31:42.230Z,2.0
2022-09-06T06:32:41.699Z,1.6
2022-09-06T06:33:42.714Z,1.0
2022-09-06T06:34:41.753Z,2.0
2022-09-06T06:37:42.504Z,2.4
2022-09-06T06:38:43.549Z,2.2
2022-09-06T06:39:41.829Z,2.2
2022-09-06T06:40:45.831Z,2.3
2022-09-06T06:41:41.726Z,1.9
2022-09-06T06:43:42.505Z,1.8
2022-09-06T06:45:42.110Z,2.2
2022-09-06T06:46:41.987Z,2.3
2022-09-06T06:47:41.705Z,1.4
2022-09-06T06:48:43.861Z,1.7
2022-09-06T06:49:41.718Z,1.6
2022-09-06T06:50:41.709Z,2.3
2022-09-06T06:51:41.777Z,2.2
2022-09-06T06:52:41.769Z,2.2
2022-09-06T06:53:42.037Z,1.6
2022-09-06T06:54:43.065Z,2.1
2022-09-06T06:55:49.170Z,2.1
2022-09-06T06:57:41.776Z,1.8
2022-09-06T06:59:41.715Z,2.1
2022-09-06T07:01:41.865Z,1.2
2022-09-06T07:02:41.683Z,1.3
2022-09-06T07:04:41.919Z,1.4
2022-09-06T07:06:11.791Z,1.6
2022-09-06T07:08:42.157Z,2.1
2022-09-06T07:10:42.102Z,2.4
2022-09-06T07:11:42.313Z,2.1
2022-09-06T07:12:41.938Z,1.8
2022-09-06T07:13:42.019Z,2.6
2022-09-06T07:14:41.661Z,2.8
2022-09-06T07:17:41.692Z,3.3
2022-09-06T07:18:42.589Z,1.8
2022-09-06T07:21:41.888Z,1.9
2022-09-06T07:22:42.210Z,1.3
2022-09-06T07:24:41.839Z,1.8
2022-09-06T07:25:41.737Z,2.0
2022-09-06T07:28:41.732Z,2.8
2022-09-06T07:29:41.712Z,2.9
2022-09-06T07:30:42.694Z,2.9
2022-09-06T07:35:42.047Z,2.0
2022-09-06T07:37:41.714Z,1.9
2022-09-06T07:39:41.944Z,2.0
2022-09-06T07:40:41.992Z,2.4
2022-09-06T07:42:42.763Z,2.3
2022-09-06T07:43:41.713Z,1.9
2022-09-06T07:44:41.693Z,1.5
2022-09-06T07:45:41.895Z,1.6
2022-09-06T07:46:41.870Z,2.2
2022-09-06T07:53:11.884Z,2.6
2022-09-06T07:53:43.577Z,2.9
2022-09-06T07:54:41.660Z,3.2
2022-09-06T07:55:41.670Z,3.0
2022-09-06T07:56:41.922Z,3.2
2022-09-06T07:57:41.641Z,2.6
2022-09-06T07:58:42.215Z,3.3
2022-09-06T07:59:43.030Z,2.5
2022-09-06T08:00:41.807Z,3.0
2022-09-06T08:02:42.476Z,2.5
2022-09-06T08:04:42.699Z,1.9
2022-09-06T08:07:41.998Z,2.0
2022-09-06T08:09:41.664Z,2.0
2022-09-06T08:14:41.717Z,2.2
2022-09-06T08:25:41.817Z,1.7
2022-09-06T08:27:41.839Z,2.9
2022-09-06T08:28:41.653Z,2.5
2022-09-06T08:29:41.706Z,2.5
2022-09-06T08:30:41.634Z,2.6
2022-09-06T08:32:42.961Z,2.6
2022-09-06T08:34:41.627Z,1.7
2022-09-06T08:35:41.751Z,1.9
2022-09-06T08:36:43.004Z,2.3
2022-09-06T08:41:47.782Z,1.6
2022-09-06T08:42:41.895Z,2.2
2022-09-06T08:43:51.413Z,2.4
2022-09-06T08:44:58.362Z,2.5
2022-09-06T08:45:42.535Z,2.6
2022-09-06T08:46:49.601Z,2.0
2022-09-06T08:48:42.889Z,2.2
2022-09-06T08:53:47.198Z,2.0
2022-09-06T08:55:55.183Z,2.4
2022-09-06T08:57:51.990Z,1.8
2022-09-06T08:58:58.540Z,2.1
2022-09-06T08:59:43.237Z,1.9
2022-09-06T09:00:47.532Z,2.7
2022-09-06T09:01:54.781Z,2.4
2022-09-06T09:02:46.278Z,2.6
2022-09-06T09:03:44.933Z,2.2
2022-09-06T09:04:46.324Z,1.7
2022-09-06T09:05:43.043Z,1.5
2022-09-06T09:06:41.698Z,1.7
2022-09-06T09:07:48.125Z,2.2
2022-09-06T09:08:54.406Z,1.7
2022-09-06T09:09:42.219Z,1.9
2022-09-06T09:10:52.672Z,2.1
2022-09-06T09:11:46.402Z,3.0
2022-09-06T09:12:47.331Z,3.3
2022-09-06T09:13:50.389Z,2.7
2022-09-06T09:15:41.613Z,5.1
2022-09-06T09:16:42.051Z,3.3
2022-09-06T09:17:42.683Z,3.3
2022-09-06T09:18:45.996Z,4.1
2022-09-06T09:19:43.382Z,3.9
2022-09-06T09:20:41.655Z,3.5
2022-09-06T09:21:41.746Z,3.0
2022-09-06T09:22:42.583Z,2.2
2022-09-06T09:23:41.624Z,2.7
2022-09-06T09:24:42.003Z,2.4
2022-09-06T09:25:42.482Z,2.0
2022-09-06T09:26:51.812Z,2.3
2022-09-06T09:27:42.014Z,2.1
2022-09-06T09:28:59.689Z,1.7
2022-09-06T09:30:55.211Z,2.3
2022-09-06T09:31:49.899Z,2.1
2022-09-06T09:32:45.270Z,1.7
2022-09-06T09:33:41.589Z,1.6
2022-09-06T09:34:41.640Z,2.1
2022-09-06T09:35:42.746Z,1.9
2022-09-06T09:39:42.067Z,1.6
2022-09-06T09:40:50.514Z,1.2
2022-09-06T09:41:43.835Z,1.3
2022-09-06T09:42:42.044Z,1.2
2022-09-06T09:43:52.163Z,2.1
2022-09-06T09:44:45.063Z,2.0
2022-09-06T09:45:41.976Z,1.8
2022-09-06T09:46:42.036Z,1.2
2022-09-06T09:47:41.845Z,1.7
2022-09-06T09:48:45.938Z,1.7
2022-09-06T09:49:41.560Z,1.4
2022-09-06T09:51:45.593Z,2.1
2022-09-06T09:52:45.590Z,2.3
2022-09-06T09:53:51.645Z,1.7
2022-09-06T09:54:44.718Z,1.6
2022-09-06T09:55:42.464Z,2.1
2022-09-06T09:56:53.124Z,1.8
2022-09-06T09:57:48.544Z,1.5
2022-09-06T09:58:41.558Z,1.3
2022-09-06T10:01:41.587Z,1.7
2022-09-06T10:04:47.741Z,1.6
2022-09-06T10:07:09.140Z,1.6
2022-09-06T10:08:44.235Z,1.3
2022-09-06T10:09:44.113Z,1.0
2022-09-06T10:10:47.001Z,0.9
2022-09-06T10:11:52.168Z,1.4
2022-09-06T10:12:43.323Z,1.6
2022-09-06T10:13:43.303Z,2.0
2022-09-06T10:14:46.357Z,1.7
2022-09-06T10:15:43.612Z,1.6
2022-09-06T10:16:45.805Z,1.0
2022-09-06T10:17:52.185Z,1.7
2022-09-06T10:18:43.913Z,1.5
2022-09-06T10:19:45.771Z,1.8
2022-09-06T10:20:46.650Z,2.3
2022-09-06T10:21:41.490Z,1.3
2022-09-06T10:22:56.840Z,2.9
2022-09-06T10:24:26.047Z,1.7
2022-09-06T10:24:50.169Z,1.6
2022-09-06T10:25:49.550Z,1.3
2022-09-06T10:26:51.176Z,0.7
2022-09-06T10:28:10.495Z,1.7
2022-09-06T10:28:45.273Z,1.1
2022-09-06T10:29:54.334Z,1.5
2022-09-06T10:30:51.680Z,1.6
2022-09-06T10:33:47.299Z,1.6
2022-09-06T10:34:51.267Z,1.9
2022-09-06T10:35:42.398Z,1.8
2022-09-06T10:36:48.929Z,1.5
2022-09-06T10:37:49.591Z,1.6
2022-09-06T10:38:53.348Z,1.8
2022-09-06T10:39:56.070Z,2.1
2022-09-06T10:42:45.294Z,2.8
2022-09-06T10:43:50.020Z,1.9
2022-09-06T10:44:48.138Z,2.3
2022-09-06T10:45:47.647Z,1.9
2022-09-06T10:46:46.509Z,2.1
2022-09-06T10:48:02.107Z,1.9
2022-09-06T10:48:45.432Z,1.8
2022-09-06T10:49:46.996Z,2.5
2022-09-06T10:50:46.539Z,2.3
2022-09-06T10:51:49.725Z,1.6
2022-09-06T10:52:45.699Z,2.0
2022-09-06T10:53:44.930Z,3.2
2022-09-06T10:54:47.052Z,2.0
2022-09-06T10:55:47.812Z,1.8
2022-09-06T10:56:44.662Z,2.4
2022-09-06T10:58:16.260Z,2.8
2022-09-06T10:59:54.240Z,2.2
2022-09-06T11:00:47.967Z,2.4
2022-09-06T11:01:47.291Z,3.0
2022-09-06T11:04:04.177Z,2.3
2022-09-06T11:05:47.491Z,2.8
2022-09-06T11:06:46.784Z,2.5
2022-09-06T11:08:57.750Z,1.7
2022-09-06T11:09:46.341Z,2.5
2022-09-06T11:10:48.303Z,1.3
2022-09-06T11:11:55.160Z,1.9
2022-09-06T11:12:53.157Z,2.3
2022-09-06T11:13:41.478Z,1.6
2022-09-06T11:14:42.023Z,1.8
2022-09-06T11:15:44.698Z,1.5
2022-09-06T11:16:48.875Z,1.4
2022-09-06T11:17:54.149Z,1.5
2022-09-06T11:18:45.699Z,1.9
2022-09-06T11:19:44.872Z,1.9
2022-09-06T11:22:01.064Z,2.3
2022-09-06T11:23:52.385Z,2.0
2022-09-06T11:26:56.467Z,2.7
2022-09-06T11:28:48.331Z,1.8
2022-09-06T11:29:44.865Z,1.3
2022-09-06T11:30:47.044Z,1.9
2022-09-06T11:32:17.219Z,2.2
2022-09-06T11:32:48.806Z,1.0
2022-09-06T11:33:41.885Z,2.0
2022-09-06T11:34:44.259Z,2.0
2022-09-06T11:35:43.218Z,1.2
2022-09-06T11:36:48.263Z,1.6
2022-09-06T11:37:44.809Z,1.6
2022-09-06T11:38:43.045Z,1.5
2022-09-06T11:40:45.677Z,1.4
2022-09-06T11:41:43.183Z,1.4
2022-09-06T11:43:50.026Z,1.2
2022-09-06T11:44:51.171Z,1.5
2022-09-06T11:45:52.912Z,1.3
2022-09-06T11:46:50.253Z,1.8
2022-09-06T11:49:41.988Z,1.7
2022-09-06T11:50:59.609Z,1.8
2022-09-06T11:51:44.064Z,2.0
2022-09-06T11:52:50.195Z,2.4
2022-09-06T11:53:50.225Z,2.7
2022-09-06T11:54:47.547Z,1.9
2022-09-06T11:55:48.750Z,2.0
2022-09-06T12:04:07.066Z,1.7
2022-09-06T12:05:00.352Z,2.1
2022-09-06T12:05:59.523Z,2.5
2022-09-06T12:06:44.074Z,3.4
2022-09-06T12:07:59.553Z,2.2
2022-09-06T12:09:43.989Z,1.4
2022-09-06T12:11:45.162Z,1.0
2022-09-06T12:12:44.744Z,1.5
2022-09-06T12:13:54.632Z,1.2
2022-09-06T12:14:43.340Z,1.3
2022-09-06T12:15:52.331Z,1.3
2022-09-06T12:19:53.026Z,1.5
2022-09-06T12:20:52.974Z,1.1
2022-09-06T12:21:43.279Z,1.6
2022-09-06T12:22:50.120Z,1.6
2022-09-06T12:23:43.582Z,1.5
2022-09-06T12:24:52.392Z,1.2
2022-09-06T12:25:52.803Z,1.8
2022-09-06T12:26:55.549Z,1.6
2022-09-06T12:34:45.111Z,0.6
2022-09-06T12:35:57.205Z,1.0
2022-09-06T12:37:59.671Z,1.0
2022-09-06T12:38:51.110Z,0.9
2022-09-06T12:41:45.810Z,1.2
2022-09-06T12:45:45.825Z,0.9
2022-09-06T12:46:48.173Z,0.8
2022-09-06T12:47:41.404Z,0.8
2022-09-06T12:48:44.582Z,0.9
2022-09-06T12:49:41.414Z,1.3
2022-09-06T12:50:41.701Z,0.9
2022-09-06T12:51:43.850Z,1.0
2022-09-06T12:52:59.399Z,1.4
2022-09-06T12:53:41.378Z,1.6
2022-09-06T12:54:48.285Z,1.2
2022-09-06T12:55:42.010Z,1.2
2022-09-06T12:56:41.406Z,1.1
2022-09-06T12:58:41.753Z,1.0
2022-09-06T12:59:49.227Z,1.0
2022-09-06T13:00:45.362Z,0.9
2022-09-06T13:01:47.160Z,0.6
2022-09-06T13:03:49.243Z,0.7
2022-09-06T13:04:44.259Z,1.1
2022-09-06T13:06:45.966Z,1.2
2022-09-06T13:10:44.860Z,0.8
2022-09-06T13:13:49.709Z,1.4
2022-09-06T13:15:47.543Z,1.0
2022-09-06T13:16:49.014Z,2.2
2022-09-06T13:20:41.432Z,2.3
2022-09-06T13:22:45.057Z,2.6
2022-09-06T13:23:44.186Z,5.0
2022-09-06T13:24:47.174Z,4.3
2022-09-06T13:25:50.404Z,4.2
2022-09-06T13:26:41.943Z,3.7
2022-09-06T13:28:41.643Z,2.7
2022-09-06T13:30:49.053Z,0.8
2022-09-06T13:32:48.591Z,1.8
2022-09-06T13:33:42.271Z,1.6
2022-09-06T13:35:41.361Z,1.6
2022-09-06T13:36:49.294Z,1.1
2022-09-06T13:39:44.891Z,0.9
2022-09-06T13:42:41.515Z,1.2
2022-09-06T13:47:41.411Z,1.9
2022-09-06T13:48:43.254Z,2.1
2022-09-06T13:51:43.528Z,0.7
2022-09-06T13:53:41.581Z,1.0
2022-09-06T13:54:41.374Z,1.1
2022-09-06T13:56:44.739Z,1.1
2022-09-06T14:00:41.622Z,1.4
2022-09-06T14:03:46.897Z,1.7
2022-09-06T14:04:41.339Z,2.2
2022-09-06T14:09:05.992Z,1.4
2022-09-06T14:09:41.347Z,1.1
2022-09-06T14:10:41.680Z,1.4
2022-09-06T14:11:47.502Z,1.2
2022-09-06T14:13:41.926Z,0.9
2022-09-06T14:14:41.377Z,1.2
2022-09-06T14:16:41.467Z,1.1
2022-09-06T14:19:41.555Z,1.4
2022-09-06T14:23:41.379Z,1.1
2022-09-06T14:25:41.439Z,1.2
2022-09-06T14:30:41.391Z,0.7
2022-09-06T14:31:41.715Z,1.2
2022-09-06T14:33:41.365Z,0.9
2022-09-06T14:34:41.278Z,0.8
2022-09-06T14:35:41.871Z,0.8
2022-09-06T14:37:41.448Z,0.9
2022-09-06T14:38:43.714Z,0.7
2022-09-06T14:41:41.353Z,0.6
2022-09-06T14:42:41.342Z,0.9
2022-09-06T14:43:43.633Z,1.1
2022-09-06T14:45:41.320Z,1.2
2022-09-06T14:47:41.428Z,1.0
2022-09-06T14:48:42.665Z,0.9
2022-09-06T14:49:41.841Z,0.9
2022-09-06T14:50:41.319Z,0.9
2022-09-06T14:51:41.430Z,0.9
2022-09-06T14:52:41.336Z,0.5
2022-09-06T14:53:42.799Z,0.8
2022-09-06T14:55:42.698Z,0.6
2022-09-06T14:56:43.733Z,0.6
2022-09-06T14:57:41.861Z,0.6
2022-09-06T14:58:43.386Z,1.0
2022-09-06T14:59:41.499Z,1.0
2022-09-06T15:00:41.311Z,0.7
2022-09-06T15:01:41.531Z,0.9
2022-09-06T15:02:41.490Z,0.6
2022-09-06T15:03:46.901Z,0.6
2022-09-06T15:13:42.919Z,0.6
2022-09-06T15:14:41.565Z,0.7
2022-09-06T15:16:44.066Z,0.6
2022-09-06T15:17:41.786Z,0.6
2022-09-06T15:19:41.358Z,0.7
2022-09-06T15:22:41.282Z,0.4
2022-09-06T15:24:41.711Z,0.6
2022-09-06T15:25:51.477Z,0.8
2022-09-06T15:26:42.769Z,0.8
2022-09-06T15:27:41.282Z,0.9
2022-09-06T15:29:42.616Z,0.6
2022-09-06T15:31:42.080Z,1.0
2022-09-06T15:32:41.348Z,0.8
2022-09-06T15:33:42.086Z,1.5
2022-09-06T15:34:41.254Z,1.1
2022-09-06T15:35:45.110Z,0.9
2022-09-06T15:36:41.269Z,1.0
2022-09-06T15:37:41.353Z,1.1
2022-09-06T15:38:45.487Z,1.2
2022-09-06T15:39:41.318Z,1.0
2022-09-06T15:40:41.287Z,0.9
2022-09-06T15:41:41.746Z,1.0
2022-09-06T15:42:41.432Z,1.3
2022-09-06T15:43:44.322Z,0.9
2022-09-06T15:44:41.779Z,1.0
2022-09-06T15:46:46.119Z,1.0
2022-09-06T15:47:41.498Z,1.7
2022-09-06T15:48:43.862Z,1.6
2022-09-06T15:49:41.413Z,1.5
2022-09-06T15:50:51.371Z,1.5
2022-09-06T15:51:42.332Z,1.6
2022-09-06T15:52:41.337Z,1.2
2022-09-06T15:53:41.479Z,1.2
2022-09-06T15:54:50.633Z,1.5
2022-09-06T15:56:41.713Z,1.5
2022-09-06T15:57:41.317Z,1.5
2022-09-06T15:58:41.324Z,1.0
2022-09-06T15:59:41.475Z,1.9
2022-09-06T16:01:41.497Z,0.9
2022-09-06T16:02:42.781Z,0.9
2022-09-06T16:03:47.618Z,0.8
2022-09-06T16:04:41.583Z,0.9
2022-09-06T16:07:44.534Z,1.4
2022-09-06T16:10:41.647Z,0.5
2022-09-06T16:11:41.770Z,0.6
2022-09-06T16:13:42.330Z,0.4
2022-09-06T16:14:41.295Z,1.1
2022-09-06T16:16:42.557Z,0.6
2022-09-06T16:19:41.297Z,0.5
2022-09-06T16:21:43.078Z,1.2
2022-09-06T16:23:42.608Z,0.9
2022-09-06T16:24:41.250Z,0.7
2022-09-06T16:25:41.247Z,0.6
2022-09-06T16:29:41.985Z,0.9
2022-09-06T16:36:41.671Z,0.9
2022-09-06T16:41:43.887Z,0.7
2022-09-06T16:43:41.296Z,0.7
2022-09-06T16:45:41.285Z,0.9
2022-09-06T16:47:41.398Z,0.8
2022-09-06T16:49:41.238Z,0.8
2022-09-06T16:53:43.053Z,0.6
2022-09-06T16:54:41.884Z,1.4
2022-09-06T16:55:41.231Z,0.9
2022-09-06T16:56:41.670Z,0.8
2022-09-06T16:58:43.597Z,0.8
2022-09-06T16:59:41.381Z,1.3
2022-09-06T17:00:42.832Z,1.5
2022-09-06T17:01:42.072Z,1.9
2022-09-06T17:02:45.045Z,1.1
2022-09-06T17:03:41.247Z,1.4
2022-09-06T17:04:41.291Z,1.5
2022-09-06T17:05:41.367Z,1.7
2022-09-06T17:06:44.937Z,1.6
2022-09-06T17:08:41.839Z,1.1
2022-09-06T17:09:41.749Z,1.1
2022-09-06T17:11:41.511Z,0.9
2022-09-06T17:12:41.211Z,0.8
2022-09-06T17:13:41.541Z,1.1
2022-09-06T17:14:41.307Z,0.9
2022-09-06T17:16:50.680Z,0.7
2022-09-06T17:22:41.720Z,1.2
2022-09-06T17:24:41.975Z,0.5
2022-09-06T17:25:43.670Z,0.4
2022-09-06T17:28:41.227Z,0.7
2022-09-06T17:33:41.432Z,0.4
2022-09-06T17:37:41.251Z,0.7
2022-09-06T17:39:41.407Z,0.6
2022-09-06T17:40:41.921Z,0.6
2022-09-06T17:44:41.251Z,0.3
2022-09-06T17:46:56.933Z,0.5
2022-09-06T17:47:41.232Z,0.5
2022-09-06T17:48:41.287Z,0.5
2022-09-06T17:49:41.462Z,0.6
2022-09-06T17:52:41.926Z,0.5
2022-09-06T17:54:41.170Z,0.8
2022-09-06T17:56:41.268Z,0.9
2022-09-06T17:58:42.141Z,0.8
2022-09-06T17:59:41.201Z,0.8
2022-09-06T18:05:41.348Z,0.9
2022-09-06T18:08:43.941Z,1.1
2022-09-06T18:11:42.230Z,0.8
2022-09-06T18:17:41.292Z,1.1
2022-09-06T18:19:41.251Z,1.3
2022-09-06T18:20:41.140Z,1.2
2022-09-06T18:21:41.517Z,1.6
2022-09-06T18:22:41.162Z,1.3
2022-09-06T18:24:41.276Z,1.5
2022-09-06T18:25:41.231Z,1.2
2022-09-06T18:26:41.777Z,1.5
2022-09-06T18:27:41.128Z,1.1
2022-09-06T18:28:41.502Z,1.1
2022-09-06T18:29:41.286Z,1.1
2022-09-06T18:30:41.618Z,1.4
2022-09-06T18:33:42.725Z,0.7
2022-09-06T18:35:42.938Z,0.9
2022-09-06T18:36:41.512Z,0.7
2022-09-06T18:37:41.166Z,1.3
2022-09-06T18:40:41.183Z,0.8
2022-09-06T18:41:50.587Z,0.7
2022-09-06T18:42:44.807Z,0.7
2022-09-06T18:43:41.504Z,0.8
2022-09-06T18:44:41.188Z,0.8
2022-09-06T18:49:43.924Z,0.6
2022-09-06T18:51:41.333Z,0.8
2022-09-06T18:52:41.787Z,1.0
2022-09-06T18:56:41.733Z,0.7
2022-09-06T18:57:41.133Z,1.2
2022-09-06T18:58:41.937Z,1.2
2022-09-06T19:01:43.197Z,1.0
2022-09-06T19:03:42.088Z,1.2
2022-09-06T19:05:41.113Z,1.5
2022-09-06T19:06:43.387Z,1.0
2022-09-06T19:08:42.065Z,1.4
2022-09-06T19:10:41.402Z,1.1
2022-09-06T19:11:43.554Z,1.2
2022-09-06T19:12:41.188Z,1.1
2022-09-06T19:14:41.130Z,1.2
2022-09-06T19:22:41.114Z,0.8
2022-09-06T19:23:44.193Z,0.6
2022-09-06T19:25:41.125Z,0.5
2022-09-06T19:27:44.548Z,0.8
2022-09-06T19:34:41.219Z,1.1